TimeEDT,TemperatureF,Dew PointF,Humidity,Sea Level PressureIn,VisibilityMPH,Wind Direction,Wind SpeedMPH,Gust SpeedMPH,PrecipitationIn,Events,Conditions,WindDirDegrees,DateUTC
12:54 AM,59.0,51.1,75,30.03,10.0,SSW,5.8,-,N/A,,Clear,200,2012-10-05 04:54:00
1:54 AM,59.0,51.1,75,30.03,10.0,South,4.6,-,N/A,,Partly Cloudy,190,2012-10-05 05:54:00
2:54 AM,59.0,51.1,75,30.01,10.0,South,5.8,-,N/A,,Partly Cloudy,190,2012-10-05 06:54:00
3:54 AM,64.0,52.0,65,30.00,10.0,SW,10.4,-,N/A,,Mostly Cloudy,220,2012-10-05 07:54:00
4:54 AM,64.9,52.0,63,29.99,10.0,SSW,11.5,-,N/A,,Mostly Cloudy,210,2012-10-05 08:54:00
5:54 AM,66.0,53.1,63,29.99,10.0,SW,10.4,-,N/A,,Overcast,220,2012-10-05 09:54:00
6:54 AM,64.9,54.0,68,29.99,10.0,SW,12.7,-,0.00,,Overcast,220,2012-10-05 10:54:00
7:54 AM,64.0,57.0,78,30.00,10.0,SW,11.5,-,0.01,,Overcast,230,2012-10-05 11:54:00
8:54 AM,64.9,57.0,75,30.00,10.0,SW,12.7,23.0,N/A,,Mostly Cloudy,220,2012-10-05 12:54:00
9:54 AM,66.0,57.0,73,29.99,10.0,SW,15.0,21.9,N/A,,Overcast,220,2012-10-05 13:54:00
10:28 AM,64.4,57.2,77,29.99,10.0,SW,13.8,24.2,N/A,,Overcast,230,2012-10-05 14:28:00
10:50 AM,66.2,57.2,73,29.99,10.0,SW,16.1,23.0,N/A,,Overcast,230,2012-10-05 14:50:00
10:54 AM,66.0,57.0,73,29.99,10.0,SW,18.4,23.0,N/A,,Overcast,230,2012-10-05 14:54:00
11:25 AM,64.4,57.2,77,29.98,10.0,SW,15.0,28.8,N/A,,Overcast,230,2012-10-05 15:25:00
11:54 AM,64.9,57.0,75,29.98,8.0,SW,17.3,24.2,0.00,Rain,Light Rain,230,2012-10-05 15:54:00
12:54 PM,64.9,57.9,78,29.97,8.0,SW,18.4,28.8,0.00,,Overcast,230,2012-10-05 16:54:00
1:54 PM,64.0,55.9,75,29.97,10.0,WSW,19.6,29.9,N/A,,Overcast,240,2012-10-05 17:54:00
2:49 PM,62.6,55.4,77,29.96,10.0,WSW,20.7,29.9,N/A,,Overcast,240,2012-10-05 18:49:00
2:54 PM,63.0,54.0,72,29.97,10.0,WSW,15.0,29.9,N/A,,Overcast,250,2012-10-05 18:54:00
3:22 PM,62.6,53.6,72,29.97,10.0,WSW,18.4,26.5,N/A,,Overcast,250,2012-10-05 19:22:00
3:54 PM,62.1,53.1,72,29.97,10.0,WSW,20.7,31.1,N/A,,Overcast,250,2012-10-05 19:54:00
4:54 PM,60.1,53.1,78,29.96,10.0,WSW,15.0,25.3,0.00,Rain,Light Rain,250,2012-10-05 20:54:00
5:48 PM,60.8,51.8,72,29.94,10.0,SW,13.8,-,0.00,Rain,Light Rain,230,2012-10-05 21:48:00
5:54 PM,60.1,52.0,75,29.94,10.0,WSW,15.0,-,0.00,Rain,Light Rain,240,2012-10-05 21:54:00
6:54 PM,57.9,48.0,70,29.94,10.0,West,13.8,23.0,0.00,,Overcast,260,2012-10-05 22:54:00
7:26 PM,57.2,46.4,67,29.93,10.0,WSW,10.4,-,0.00,Rain,Light Rain,250,2012-10-05 23:26:00
7:54 PM,57.0,48.0,72,29.93,10.0,West,6.9,-,0.00,Rain,Light Rain,260,2012-10-05 23:54:00
8:54 PM,55.9,48.9,77,29.93,10.0,West,9.2,-,0.00,Rain,Light Rain,270,2012-10-06 00:54:00
9:54 PM,53.1,48.9,86,29.93,7.0,WSW,5.8,-,0.03,Rain,Light Rain,250,2012-10-06 01:54:00
10:54 PM,53.1,48.0,83,29.91,10.0,West,3.5,-,0.01,,Overcast,260,2012-10-06 02:54:00
11:54 PM,53.1,46.9,80,29.91,10.0,West,10.4,-,0.00,,Overcast,270,2012-10-06 03:54:00